sensor_id;sensor_type;location;lat;lon;timestamp;temperature;humidity
3912;DHT22;1971;51.778;10.330;2023-03-01T00:01:27;-7.80;99.90
3912;DHT22;1971;51.778;10.330;2023-03-01T00:03:59;-7.70;99.90
3912;DHT22;1971;51.778;10.330;2023-03-01T00:06:29;-7.20;99.90
3912;DHT22;1971;51.778;10.330;2023-03-01T00:08:59;-7.50;99.90
3912;DHT22;1971;51.778;10.330;2023-03-01T00:11:32;-7.70;99.90
3912;DHT22;1971;51.778;10.330;2023-03-01T00:14:03;-7.40;99.90
3912;DHT22;1971;51.778;10.330;2023-03-01T00:16:36;-7.50;99.90
3912;DHT22;1971;51.778;10.330;2023-03-01T00:19:11;-7.70;99.90
3912;DHT22;1971;51.778;10.330;2023-03-01T00:21:42;-7.50;99.90
3912;DHT22;1971;51.778;10.330;2023-03-01T00:24:12;-7.70;99.90
3912;DHT22;1971;51.778;10.330;2023-03-01T00:26:44;-7.50;99.90
3912;DHT22;1971;51.778;10.330;2023-03-01T00:29:14;-7.40;99.90
3912;DHT22;1971;51.778;10.330;2023-03-01T00:31:44;-7.10;99.90
3912;DHT22;1971;51.778;10.330;2023-03-01T00:34:14;-7.10;99.90
3912;DHT22;1971;51.778;10.330;2023-03-01T00:36:44;-7.10;99.90
3912;DHT22;1971;51.778;10.330;2023-03-01T00:39:15;-7.40;99.90
3912;DHT22;1971;51.778;10.330;2023-03-01T00:41:47;-7.50;99.90
3912;DHT22;1971;51.778;10.330;2023-03-01T00:44:17;-7.70;99.90
3912;DHT22;1971;51.778;10.330;2023-03-01T00:46:48;-7.50;99.90
3912;DHT22;1971;51.778;10.330;2023-03-01T00:49:18;-7.80;99.90
3912;DHT22;1971;51.778;10.330;2023-03-01T00:51:51;-7.80;99.90
3912;DHT22;1971;51.778;10.330;2023-03-01T00:54:22;-7.90;99.90
3912;DHT22;1971;51.778;10.330;2023-03-01T00:56:55;-7.70;99.90
3912;DHT22;1971;51.778;10.330;2023-03-01T00:59:25;-7.70;99.90
3912;DHT22;1971;51.778;10.330;2023-03-01T01:01:55;-7.40;99.90
3912;DHT22;1971;51.778;10.330;2023-03-01T01:04:28;-7.70;99.90
3912;DHT22;1971;51.778;10.330;2023-03-01T01:06:58;-7.80;99.90
3912;DHT22;1971;51.778;10.330;2023-03-01T01:09:29;-7.80;99.90
3912;DHT22;1971;51.778;10.330;2023-03-01T01:12:02;-7.30;99.90
3912;DHT22;1971;51.778;10.330;2023-03-01T01:14:32;-7.30;99.90
3912;DHT22;1971;51.778;10.330;2023-03-01T01:17:03;-7.60;99.90
3912;DHT22;1971;51.778;10.330;2023-03-01T01:19:33;-7.80;99.90
3912;DHT22;1971;51.778;10.330;2023-03-01T01:22:03;-8.00;99.90
3912;DHT22;1971;51.778;10.330;2023-03-01T01:24:33;-8.00;99.90
3912;DHT22;1971;51.778;10.330;2023-03-01T01:27:06;-8.00;99.90
3912;DHT22;1971;51.778;10.330;2023-03-01T01:29:36;-8.00;99.90
3912;DHT22;1971;51.778;10.330;2023-03-01T01:32:06;-7.80;99.90
3912;DHT22;1971;51.778;10.330;2023-03-01T01:34:36;-7.90;99.90
3912;DHT22;1971;51.778;10.330;2023-03-01T01:37:06;-7.50;99.90
3912;DHT22;1971;51.778;10.330;2023-03-01T01:39:37;-7.90;99.90
3912;DHT22;1971;51.778;10.330;2023-03-01T01:42:13;-8.00;99.90
3912;DHT22;1971;51.778;10.330;2023-03-01T01:44:46;-8.30;99.90
3912;DHT22;1971;51.778;10.330;2023-03-01T01:47:19;-8.30;99.90
3912;DHT22;1971;51.778;10.330;2023-03-01T01:49:52;-8.30;99.90
3912;DHT22;1971;51.778;10.330;2023-03-01T01:52:25;-8.60;99.90
3912;DHT22;1971;51.778;10.330;2023-03-01T01:54:59;-8.50;99.90
3912;DHT22;1971;51.778;10.330;2023-03-01T01:57:39;-8.40;99.90
3912;DHT22;1971;51.778;10.330;2023-03-01T02:00:12;-8.10;99.90
3912;DHT22;1971;51.778;10.330;2023-03-01T02:02:44;-8.30;99.90
3912;DHT22;1971;51.778;10.330;2023-03-01T02:05:21;-8.50;99.90
3912;DHT22;1971;51.778;10.330;2023-03-01T02:07:53;-8.60;99.90
3912;DHT22;1971;51.778;10.330;2023-03-01T02:10:24;-8.30;99.90
3912;DHT22;1971;51.778;10.330;2023-03-01T02:12:57;-8.30;99.90
3912;DHT22;1971;51.778;10.330;2023-03-01T02:15:32;-8.80;99.90
3912;DHT22;1971;51.778;10.330;2023-03-01T02:18:03;-8.70;99.90
3912;DHT22;1971;51.778;10.330;2023-03-01T02:20:39;-9.20;99.90
3912;DHT22;1971;51.778;10.330;2023-03-01T02:23:10;-8.70;99.90
3912;DHT22;1971;51.778;10.330;2023-03-01T02:25:47;-8.90;99.90
3912;DHT22;1971;51.778;10.330;2023-03-01T02:28:30;-9.40;96.00
3912;DHT22;1971;51.778;10.330;2023-03-01T02:31:01;-9.20;99.90
3912;DHT22;1971;51.778;10.330;2023-03-01T02:33:44;-9.00;99.90
3912;DHT22;1971;51.778;10.330;2023-03-01T02:36:19;-9.20;99.90
3912;DHT22;1971;51.778;10.330;2023-03-01T02:38:51;-8.90;99.90
3912;DHT22;1971;51.778;10.330;2023-03-01T02:41:23;-9.40;99.90
3912;DHT22;1971;51.778;10.330;2023-03-01T02:43:57;-9.40;99.90
3912;DHT22;1971;51.778;10.330;2023-03-01T02:46:28;-9.60;82.10
3912;DHT22;1971;51.778;10.330;2023-03-01T02:48:59;-9.50;95.60
3912;DHT22;1971;51.778;10.330;2023-03-01T02:51:45;-9.20;99.90
3912;DHT22;1971;51.778;10.330;2023-03-01T02:54:22;-9.00;99.90
3912;DHT22;1971;51.778;10.330;2023-03-01T02:56:55;-8.90;99.90
3912;DHT22;1971;51.778;10.330;2023-03-01T02:59:32;-8.70;99.90
3912;DHT22;1971;51.778;10.330;2023-03-01T03:02:17;-9.20;99.90
3912;DHT22;1971;51.778;10.330;2023-03-01T03:05:23;-9.50;28.70
3912;DHT22;1971;51.778;10.330;2023-03-01T03:07:57;-9.50;1.00
3912;DHT22;1971;51.778;10.330;2023-03-01T03:10:35;-9.30;32.30
3912;DHT22;1971;51.778;10.330;2023-03-01T03:13:09;-9.60;71.70
3912;DHT22;1971;51.778;10.330;2023-03-01T03:15:43;-9.30;78.20
3912;DHT22;1971;51.778;10.330;2023-03-01T03:18:15;-9.50;81.00
3912;DHT22;1971;51.778;10.330;2023-03-01T03:20:46;-9.70;59.20
3912;DHT22;1971;51.778;10.330;2023-03-01T03:23:21;-9.60;29.00
3912;DHT22;1971;51.778;10.330;2023-03-01T03:25:51;-9.70;42.80
3912;DHT22;1971;51.778;10.330;2023-03-01T03:28:21;-9.20;76.10
3912;DHT22;1971;51.778;10.330;2023-03-01T03:30:54;-9.40;99.90
3912;DHT22;1971;51.778;10.330;2023-03-01T03:33:25;-9.40;99.90
3912;DHT22;1971;51.778;10.330;2023-03-01T03:35:56;-8.90;99.90
3912;DHT22;1971;51.778;10.330;2023-03-01T03:38:26;-9.30;99.90
3912;DHT22;1971;51.778;10.330;2023-03-01T03:41:01;-9.50;36.00
3912;DHT22;1971;51.778;10.330;2023-03-01T03:43:34;-9.40;17.40
3912;DHT22;1971;51.778;10.330;2023-03-01T03:46:07;-9.40;18.10
3912;DHT22;1971;51.778;10.330;2023-03-01T03:48:39;-9.10;72.00
3912;DHT22;1971;51.778;10.330;2023-03-01T03:51:12;-8.80;91.00
3912;DHT22;1971;51.778;10.330;2023-03-01T03:53:43;-9.20;50.60
3912;DHT22;1971;51.778;10.330;2023-03-01T03:56:13;-9.60;68.80
3912;DHT22;1971;51.778;10.330;2023-03-01T03:58:43;-9.50;95.60
3912;DHT22;1971;51.778;10.330;2023-03-01T04:01:16;-9.20;99.90
3912;DHT22;1971;51.778;10.330;2023-03-01T04:03:46;-9.10;99.90
3912;DHT22;1971;51.778;10.330;2023-03-01T04:06:21;-8.90;99.90
3912;DHT22;1971;51.778;10.330;2023-03-01T04:08:51;-9.30;99.90
3912;DHT22;1971;51.778;10.330;2023-03-01T04:11:25;-9.00;99.90
3912;DHT22;1971;51.778;10.330;2023-03-01T04:13:58;-9.20;99.90
3912;DHT22;1971;51.778;10.330;2023-03-01T04:16:31;-9.30;99.90
3912;DHT22;1971;51.778;10.330;2023-03-01T04:19:00;-9.10;99.90
3912;DHT22;1971;51.778;10.330;2023-03-01T04:21:33;-9.40;99.90
3912;DHT22;1971;51.778;10.330;2023-03-01T04:24:04;-9.40;99.90
3912;DHT22;1971;51.778;10.330;2023-03-01T04:26:34;-9.50;99.10
3912;DHT22;1971;51.778;10.330;2023-03-01T04:29:04;-9.60;93.60
3912;DHT22;1971;51.778;10.330;2023-03-01T04:31:36;-9.60;62.70
3912;DHT22;1971;51.778;10.330;2023-03-01T04:34:06;-9.80;99.90
3912;DHT22;1971;51.778;10.330;2023-03-01T04:36:36;-9.50;99.90
3912;DHT22;1971;51.778;10.330;2023-03-01T04:39:07;-9.70;99.90
3912;DHT22;1971;51.778;10.330;2023-03-01T04:41:40;-9.50;99.90
3912;DHT22;1971;51.778;10.330;2023-03-01T04:44:11;-9.00;99.90
3912;DHT22;1971;51.778;10.330;2023-03-01T04:46:43;-8.60;99.90
3912;DHT22;1971;51.778;10.330;2023-03-01T04:49:13;-8.70;99.90
3912;DHT22;1971;51.778;10.330;2023-03-01T04:51:43;-8.90;99.90
3912;DHT22;1971;51.778;10.330;2023-03-01T04:54:14;-8.70;99.90
3912;DHT22;1971;51.778;10.330;2023-03-01T04:56:43;-9.10;99.90
3912;DHT22;1971;51.778;10.330;2023-03-01T04:59:13;-9.20;99.90
3912;DHT22;1971;51.778;10.330;2023-03-01T05:01:46;-9.20;99.90
3912;DHT22;1971;51.778;10.330;2023-03-01T05:04:15;-9.20;99.90
3912;DHT22;1971;51.778;10.330;2023-03-01T05:06:45;-9.20;99.90
3912;DHT22;1971;51.778;10.330;2023-03-01T05:09:15;-9.30;99.90
3912;DHT22;1971;51.778;10.330;2023-03-01T05:11:46;-9.10;99.90
3912;DHT22;1971;51.778;10.330;2023-03-01T05:14:16;-9.00;99.90
3912;DHT22;1971;51.778;10.330;2023-03-01T05:16:49;-8.90;99.90
3912;DHT22;1971;51.778;10.330;2023-03-01T05:19:19;-9.20;99.90
3912;DHT22;1971;51.778;10.330;2023-03-01T05:21:50;-9.40;99.90
3912;DHT22;1971;51.778;10.330;2023-03-01T05:24:34;-9.30;98.80
3912;DHT22;1971;51.778;10.330;2023-03-01T05:27:05;-9.60;37.90
3912;DHT22;1971;51.778;10.330;2023-03-01T05:29:36;-9.70;14.80
3912;DHT22;1971;51.778;10.330;2023-03-01T05:32:09;-9.50;1.00
3912;DHT22;1971;51.778;10.330;2023-03-01T05:34:43;-9.70;1.00
3912;DHT22;1971;51.778;10.330;2023-03-01T05:37:13;-9.50;13.80
3912;DHT22;1971;51.778;10.330;2023-03-01T05:39:44;-9.60;13.10
3912;DHT22;1971;51.778;10.330;2023-03-01T05:42:17;-9.40;5.80
3912;DHT22;1971;51.778;10.330;2023-03-01T05:44:46;-9.50;22.20
3912;DHT22;1971;51.778;10.330;2023-03-01T05:47:19;-9.60;51.10
3912;DHT22;1971;51.778;10.330;2023-03-01T05:49:49;-9.40;91.70
3912;DHT22;1971;51.778;10.330;2023-03-01T05:52:19;-9.30;99.90
3912;DHT22;1971;51.778;10.330;2023-03-01T05:54:49;-9.10;99.90
3912;DHT22;1971;51.778;10.330;2023-03-01T05:57:19;-9.20;99.90
3912;DHT22;1971;51.778;10.330;2023-03-01T05:59:49;-9.20;99.90
3912;DHT22;1971;51.778;10.330;2023-03-01T06:02:22;-9.40;99.90
3912;DHT22;1971;51.778;10.330;2023-03-01T06:04:52;-9.30;99.90
3912;DHT22;1971;51.778;10.330;2023-03-01T06:07:22;-8.90;99.90
3912;DHT22;1971;51.778;10.330;2023-03-01T06:09:52;-9.30;99.90
3912;DHT22;1971;51.778;10.330;2023-03-01T06:12:22;-9.30;99.90
3912;DHT22;1971;51.778;10.330;2023-03-01T06:14:52;-9.40;99.90
3912;DHT22;1971;51.778;10.330;2023-03-01T06:17:25;-9.40;91.80
3912;DHT22;1971;51.778;10.330;2023-03-01T06:19:55;-9.40;76.20
3912;DHT22;1971;51.778;10.330;2023-03-01T06:22:25;-9.00;99.90
3912;DHT22;1971;51.778;10.330;2023-03-01T06:24:56;-9.30;99.90
3912;DHT22;1971;51.778;10.330;2023-03-01T06:27:25;-9.10;99.90
3912;DHT22;1971;51.778;10.330;2023-03-01T06:29:55;-8.90;99.90
3912;DHT22;1971;51.778;10.330;2023-03-01T06:32:28;-8.70;99.90
3912;DHT22;1971;51.778;10.330;2023-03-01T06:34:58;-8.60;99.90
3912;DHT22;1971;51.778;10.330;2023-03-01T06:37:28;-8.20;99.90
3912;DHT22;1971;51.778;10.330;2023-03-01T06:39:58;-8.20;99.90
3912;DHT22;1971;51.778;10.330;2023-03-01T06:42:31;-8.10;99.90
3912;DHT22;1971;51.778;10.330;2023-03-01T06:45:01;-7.60;99.90
3912;DHT22;1971;51.778;10.330;2023-03-01T06:47:34;-7.50;99.90
3912;DHT22;1971;51.778;10.330;2023-03-01T06:50:05;-7.00;99.90
3912;DHT22;1971;51.778;10.330;2023-03-01T06:52:35;-6.60;99.90
3912;DHT22;1971;51.778;10.330;2023-03-01T06:55:06;-6.50;99.90
3912;DHT22;1971;51.778;10.330;2023-03-01T06:57:36;-6.00;99.90
3912;DHT22;1971;51.778;10.330;2023-03-01T07:00:08;-5.90;99.90
3912;DHT22;1971;51.778;10.330;2023-03-01T07:02:40;-5.70;99.90
3912;DHT22;1971;51.778;10.330;2023-03-01T07:05:10;-5.50;99.90
3912;DHT22;1971;51.778;10.330;2023-03-01T07:07:40;-5.10;99.90
3912;DHT22;1971;51.778;10.330;2023-03-01T07:10:11;-4.70;99.90
3912;DHT22;1971;51.778;10.330;2023-03-01T07:12:41;-3.70;99.90
3912;DHT22;1971;51.778;10.330;2023-03-01T07:15:13;-3.50;99.90
3912;DHT22;1971;51.778;10.330;2023-03-01T07:17:45;-3.10;99.90
3912;DHT22;1971;51.778;10.330;2023-03-01T07:20:18;-3.00;99.90
3912;DHT22;1971;51.778;10.330;2023-03-01T07:22:51;-2.70;99.90
3912;DHT22;1971;51.778;10.330;2023-03-01T07:25:21;-2.50;99.90
3912;DHT22;1971;51.778;10.330;2023-03-01T07:27:51;-2.40;56.80
3912;DHT22;1971;51.778;10.330;2023-03-01T07:30:22;-2.10;5.20
3912;DHT22;1971;51.778;10.330;2023-03-01T07:32:57;-2.00;1.00
3912;DHT22;1971;51.778;10.330;2023-03-01T07:35:28;-1.80;1.00
3912;DHT22;1971;51.778;10.330;2023-03-01T07:38:00;-1.80;1.00
3912;DHT22;1971;51.778;10.330;2023-03-01T07:40:30;-1.60;1.00
3912;DHT22;1971;51.778;10.330;2023-03-01T07:43:00;-1.40;1.00
3912;DHT22;1971;51.778;10.330;2023-03-01T07:45:30;-1.40;1.00
3912;DHT22;1971;51.778;10.330;2023-03-01T07:48:03;-1.40;1.00
3912;DHT22;1971;51.778;10.330;2023-03-01T07:50:33;-1.30;1.00
3912;DHT22;1971;51.778;10.330;2023-03-01T07:53:03;-1.20;1.00
3912;DHT22;1971;51.778;10.330;2023-03-01T07:55:33;-1.10;1.00
3912;DHT22;1971;51.778;10.330;2023-03-01T07:58:04;-1.20;1.00
3912;DHT22;1971;51.778;10.330;2023-03-01T08:00:34;-0.90;1.00
3912;DHT22;1971;51.778;10.330;2023-03-01T08:03:06;-0.60;1.00
3912;DHT22;1971;51.778;10.330;2023-03-01T08:05:36;-0.80;1.00
3912;DHT22;1971;51.778;10.330;2023-03-01T08:08:06;-0.80;1.00
3912;DHT22;1971;51.778;10.330;2023-03-01T08:10:37;-0.80;1.00
3912;DHT22;1971;51.778;10.330;2023-03-01T08:13:07;-0.60;1.00
3912;DHT22;1971;51.778;10.330;2023-03-01T08:15:45;-0.60;1.00
3912;DHT22;1971;51.778;10.330;2023-03-01T08:18:40;-0.40;1.00
3912;DHT22;1971;51.778;10.330;2023-03-01T08:21:18;-0.40;1.00
3912;DHT22;1971;51.778;10.330;2023-03-01T08:23:48;-0.20;1.00
3912;DHT22;1971;51.778;10.330;2023-03-01T08:26:20;0.20;1.00
3912;DHT22;1971;51.778;10.330;2023-03-01T08:28:50;0.00;1.00
3912;DHT22;1971;51.778;10.330;2023-03-01T08:31:22;0.10;1.00
3912;DHT22;1971;51.778;10.330;2023-03-01T08:33:59;0.20;1.00
3912;DHT22;1971;51.778;10.330;2023-03-01T08:36:31;0.20;1.00
3912;DHT22;1971;51.778;10.330;2023-03-01T08:39:02;0.80;1.00
3912;DHT22;1971;51.778;10.330;2023-03-01T08:41:32;0.80;1.00
3912;DHT22;1971;51.778;10.330;2023-03-01T08:44:03;0.70;1.00
3912;DHT22;1971;51.778;10.330;2023-03-01T08:46:34;0.80;1.00
3912;DHT22;1971;51.778;10.330;2023-03-01T08:49:10;1.30;1.00
3912;DHT22;1971;51.778;10.330;2023-03-01T08:51:41;1.30;1.00
3912;DHT22;1971;51.778;10.330;2023-03-01T08:54:13;1.60;1.00
3912;DHT22;1971;51.778;10.330;2023-03-01T08:56:43;1.70;1.00
3912;DHT22;1971;51.778;10.330;2023-03-01T08:59:14;1.90;1.00
3912;DHT22;1971;51.778;10.330;2023-03-01T09:01:44;2.10;1.00
3912;DHT22;1971;51.778;10.330;2023-03-01T09:04:17;2.10;1.00
3912;DHT22;1971;51.778;10.330;2023-03-01T09:06:47;2.30;1.00
3912;DHT22;1971;51.778;10.330;2023-03-01T09:09:17;2.20;99.90
3912;DHT22;1971;51.778;10.330;2023-03-01T09:11:47;2.30;99.90
3912;DHT22;1971;51.778;10.330;2023-03-01T09:14:17;2.20;99.90
3912;DHT22;1971;51.778;10.330;2023-03-01T09:16:47;2.20;99.90
3912;DHT22;1971;51.778;10.330;2023-03-01T09:19:20;2.50;99.90
3912;DHT22;1971;51.778;10.330;2023-03-01T09:21:53;2.20;99.90
3912;DHT22;1971;51.778;10.330;2023-03-01T09:24:25;2.50;99.90
3912;DHT22;1971;51.778;10.330;2023-03-01T09:26:55;2.20;99.90
3912;DHT22;1971;51.778;10.330;2023-03-01T09:29:25;2.50;99.90
3912;DHT22;1971;51.778;10.330;2023-03-01T09:31:56;2.60;99.90
3912;DHT22;1971;51.778;10.330;2023-03-01T09:34:29;2.80;99.90
3912;DHT22;1971;51.778;10.330;2023-03-01T09:37:18;2.70;99.90
3912;DHT22;1971;51.778;10.330;2023-03-01T09:39:48;3.00;99.90
3912;DHT22;1971;51.778;10.330;2023-03-01T09:42:18;3.20;99.90
3912;DHT22;1971;51.778;10.330;2023-03-01T09:44:52;3.40;99.90
3912;DHT22;1971;51.778;10.330;2023-03-01T09:47:27;3.20;99.90
3912;DHT22;1971;51.778;10.330;2023-03-01T09:50:04;3.60;99.90
3912;DHT22;1971;51.778;10.330;2023-03-01T09:52:39;3.30;99.90
3912;DHT22;1971;51.778;10.330;2023-03-01T09:55:12;3.70;99.90
3912;DHT22;1971;51.778;10.330;2023-03-01T09:57:47;3.90;99.90
3912;DHT22;1971;51.778;10.330;2023-03-01T10:00:30;3.70;99.90
3912;DHT22;1971;51.778;10.330;2023-03-01T10:03:10;4.00;99.90
3912;DHT22;1971;51.778;10.330;2023-03-01T10:05:52;3.80;99.90
3912;DHT22;1971;51.778;10.330;2023-03-01T10:11:21;3.80;99.90
3912;DHT22;1971;51.778;10.330;2023-03-01T10:13:57;4.30;99.90
3912;DHT22;1971;51.778;10.330;2023-03-01T10:16:36;4.20;99.90
3912;DHT22;1971;51.778;10.330;2023-03-01T10:19:12;4.50;99.90
3912;DHT22;1971;51.778;10.330;2023-03-01T10:21:48;4.40;99.90
3912;DHT22;1971;51.778;10.330;2023-03-01T10:24:19;4.30;99.90
3912;DHT22;1971;51.778;10.330;2023-03-01T10:26:54;4.80;99.90
3912;DHT22;1971;51.778;10.330;2023-03-01T10:29:31;4.60;99.90
3912;DHT22;1971;51.778;10.330;2023-03-01T10:32:04;4.80;99.90
3912;DHT22;1971;51.778;10.330;2023-03-01T10:34:35;4.40;99.90
3912;DHT22;1971;51.778;10.330;2023-03-01T10:37:14;4.10;99.90
3912;DHT22;1971;51.778;10.330;2023-03-01T10:39:58;4.40;99.90
3912;DHT22;1971;51.778;10.330;2023-03-01T10:42:34;5.00;99.90
3912;DHT22;1971;51.778;10.330;2023-03-01T10:45:16;5.40;99.90
3912;DHT22;1971;51.778;10.330;2023-03-01T10:48:03;4.90;99.90
3912;DHT22;1971;51.778;10.330;2023-03-01T10:50:33;5.00;99.90
3912;DHT22;1971;51.778;10.330;2023-03-01T10:53:21;5.10;99.90
3912;DHT22;1971;51.778;10.330;2023-03-01T10:56:01;4.80;99.90
3912;DHT22;1971;51.778;10.330;2023-03-01T10:58:33;4.80;99.90
3912;DHT22;1971;51.778;10.330;2023-03-01T11:01:04;4.10;99.90
3912;DHT22;1971;51.778;10.330;2023-03-01T11:03:36;3.90;99.90
3912;DHT22;1971;51.778;10.330;2023-03-01T11:06:20;4.30;99.90
3912;DHT22;1971;51.778;10.330;2023-03-01T11:08:55;4.50;99.90
3912;DHT22;1971;51.778;10.330;2023-03-01T11:11:33;4.40;99.90
3912;DHT22;1971;51.778;10.330;2023-03-01T11:14:06;4.40;99.90
3912;DHT22;1971;51.778;10.330;2023-03-01T11:16:59;4.30;99.90
3912;DHT22;1971;51.778;10.330;2023-03-01T11:19:30;4.10;99.90
3912;DHT22;1971;51.778;10.330;2023-03-01T11:22:05;4.20;99.90
3912;DHT22;1971;51.778;10.330;2023-03-01T11:24:42;4.60;99.90
3912;DHT22;1971;51.778;10.330;2023-03-01T11:27:21;5.10;99.90
3912;DHT22;1971;51.778;10.330;2023-03-01T11:29:57;5.10;99.90
3912;DHT22;1971;51.778;10.330;2023-03-01T11:32:33;5.10;99.90
3912;DHT22;1971;51.778;10.330;2023-03-01T11:35:10;5.00;99.90
3912;DHT22;1971;51.778;10.330;2023-03-01T11:37:53;5.10;99.90
3912;DHT22;1971;51.778;10.330;2023-03-01T11:40:32;5.00;99.90
3912;DHT22;1971;51.778;10.330;2023-03-01T11:43:09;4.80;99.90
3912;DHT22;1971;51.778;10.330;2023-03-01T11:45:56;4.60;99.90
3912;DHT22;1971;51.778;10.330;2023-03-01T11:48:43;5.10;99.90
3912;DHT22;1971;51.778;10.330;2023-03-01T11:51:22;5.20;99.90
3912;DHT22;1971;51.778;10.330;2023-03-01T11:54:05;5.40;99.90
3912;DHT22;1971;51.778;10.330;2023-03-01T11:56:42;5.30;99.90
3912;DHT22;1971;51.778;10.330;2023-03-01T11:59:27;5.20;99.90
3912;DHT22;1971;51.778;10.330;2023-03-01T12:02:20;5.50;99.90
3912;DHT22;1971;51.778;10.330;2023-03-01T12:05:01;5.20;99.90
3912;DHT22;1971;51.778;10.330;2023-03-01T12:07:42;5.30;99.90
3912;DHT22;1971;51.778;10.330;2023-03-01T12:10:23;5.20;99.90
3912;DHT22;1971;51.778;10.330;2023-03-01T12:13:17;5.00;99.90
3912;DHT22;1971;51.778;10.330;2023-03-01T12:16:05;5.10;99.90
3912;DHT22;1971;51.778;10.330;2023-03-01T12:18:54;4.70;99.90
3912;DHT22;1971;51.778;10.330;2023-03-01T12:21:42;5.00;99.90
3912;DHT22;1971;51.778;10.330;2023-03-01T12:24:36;4.70;99.90
3912;DHT22;1971;51.778;10.330;2023-03-01T12:27:28;4.70;99.90
3912;DHT22;1971;51.778;10.330;2023-03-01T12:30:16;5.00;99.90
3912;DHT22;1971;51.778;10.330;2023-03-01T12:32:59;5.00;99.90
3912;DHT22;1971;51.778;10.330;2023-03-01T12:35:40;5.10;99.90
3912;DHT22;1971;51.778;10.330;2023-03-01T12:38:29;4.80;99.90
3912;DHT22;1971;51.778;10.330;2023-03-01T12:41:24;5.40;99.90
3912;DHT22;1971;51.778;10.330;2023-03-01T12:44:04;5.10;99.90
3912;DHT22;1971;51.778;10.330;2023-03-01T12:46:49;5.40;99.90
3912;DHT22;1971;51.778;10.330;2023-03-01T12:49:24;5.50;99.90
3912;DHT22;1971;51.778;10.330;2023-03-01T12:52:01;5.70;99.90
3912;DHT22;1971;51.778;10.330;2023-03-01T12:54:37;5.70;99.90
3912;DHT22;1971;51.778;10.330;2023-03-01T12:57:14;5.20;99.90
3912;DHT22;1971;51.778;10.330;2023-03-01T12:59:51;5.40;99.90
3912;DHT22;1971;51.778;10.330;2023-03-01T13:02:33;5.60;99.90
3912;DHT22;1971;51.778;10.330;2023-03-01T13:05:23;5.80;99.90
3912;DHT22;1971;51.778;10.330;2023-03-01T13:08:00;5.60;99.90
3912;DHT22;1971;51.778;10.330;2023-03-01T13:10:34;6.00;99.90
3912;DHT22;1971;51.778;10.330;2023-03-01T13:13:14;5.80;99.90
3912;DHT22;1971;51.778;10.330;2023-03-01T13:15:48;5.70;99.90
3912;DHT22;1971;51.778;10.330;2023-03-01T13:18:32;5.90;99.90
3912;DHT22;1971;51.778;10.330;2023-03-01T13:21:03;6.00;99.90
3912;DHT22;1971;51.778;10.330;2023-03-01T13:23:36;6.20;99.90
3912;DHT22;1971;51.778;10.330;2023-03-01T13:26:13;6.40;99.90
3912;DHT22;1971;51.778;10.330;2023-03-01T13:28:54;6.40;99.90
3912;DHT22;1971;51.778;10.330;2023-03-01T13:34:49;6.20;99.90
3912;DHT22;1971;51.778;10.330;2023-03-01T13:37:28;6.60;99.90
3912;DHT22;1971;51.778;10.330;2023-03-01T13:40:02;6.30;99.90
3912;DHT22;1971;51.778;10.330;2023-03-01T13:42:42;6.10;99.90
3912;DHT22;1971;51.778;10.330;2023-03-01T13:45:34;6.10;99.90
3912;DHT22;1971;51.778;10.330;2023-03-01T13:48:11;5.90;99.90
3912;DHT22;1971;51.778;10.330;2023-03-01T13:50:50;6.00;99.90
3912;DHT22;1971;51.778;10.330;2023-03-01T13:53:24;5.80;99.90
3912;DHT22;1971;51.778;10.330;2023-03-01T13:55:57;5.70;99.90
3912;DHT22;1971;51.778;10.330;2023-03-01T13:58:29;5.80;99.90
3912;DHT22;1971;51.778;10.330;2023-03-01T14:01:01;6.30;99.90
3912;DHT22;1971;51.778;10.330;2023-03-01T14:03:40;6.30;99.90
3912;DHT22;1971;51.778;10.330;2023-03-01T14:06:15;6.30;99.90
3912;DHT22;1971;51.778;10.330;2023-03-01T14:08:49;6.00;99.90
3912;DHT22;1971;51.778;10.330;2023-03-01T14:11:37;6.00;99.90
3912;DHT22;1971;51.778;10.330;2023-03-01T14:20:12;5.70;99.90
3912;DHT22;1971;51.778;10.330;2023-03-01T14:22:47;5.60;99.90
3912;DHT22;1971;51.778;10.330;2023-03-01T14:25:24;5.60;99.90
3912;DHT22;1971;51.778;10.330;2023-03-01T14:27:57;5.70;99.90
3912;DHT22;1971;51.778;10.330;2023-03-01T14:30:34;5.40;99.90
3912;DHT22;1971;51.778;10.330;2023-03-01T14:33:17;5.40;99.90
3912;DHT22;1971;51.778;10.330;2023-03-01T14:35:56;5.50;99.90
3912;DHT22;1971;51.778;10.330;2023-03-01T14:38:34;5.70;99.90
3912;DHT22;1971;51.778;10.330;2023-03-01T14:41:07;5.10;99.90
3912;DHT22;1971;51.778;10.330;2023-03-01T14:43:39;5.20;99.90
3912;DHT22;1971;51.778;10.330;2023-03-01T14:46:19;5.10;99.90
3912;DHT22;1971;51.778;10.330;2023-03-01T14:48:50;5.00;99.90
3912;DHT22;1971;51.778;10.330;2023-03-01T14:51:21;4.80;99.90
3912;DHT22;1971;51.778;10.330;2023-03-01T14:53:54;4.50;99.90
3912;DHT22;1971;51.778;10.330;2023-03-01T14:56:24;4.50;99.90
3912;DHT22;1971;51.778;10.330;2023-03-01T14:58:57;4.40;99.90
3912;DHT22;1971;51.778;10.330;2023-03-01T15:01:28;4.30;99.90
3912;DHT22;1971;51.778;10.330;2023-03-01T15:03:58;4.10;99.90
3912;DHT22;1971;51.778;10.330;2023-03-01T15:06:28;4.20;99.90
3912;DHT22;1971;51.778;10.330;2023-03-01T15:09:02;4.40;99.90
3912;DHT22;1971;51.778;10.330;2023-03-01T15:11:33;4.00;99.90
3912;DHT22;1971;51.778;10.330;2023-03-01T15:14:39;4.10;99.90
3912;DHT22;1971;51.778;10.330;2023-03-01T15:17:29;4.00;99.90
3912;DHT22;1971;51.778;10.330;2023-03-01T15:20:03;3.50;99.90
3912;DHT22;1971;51.778;10.330;2023-03-01T15:22:35;3.70;99.90
3912;DHT22;1971;51.778;10.330;2023-03-01T15:25:14;3.80;99.90
3912;DHT22;1971;51.778;10.330;2023-03-01T15:27:45;3.80;99.90
3912;DHT22;1971;51.778;10.330;2023-03-01T15:30:20;3.50;99.90
3912;DHT22;1971;51.778;10.330;2023-03-01T15:35:52;4.10;99.90
3912;DHT22;1971;51.778;10.330;2023-03-01T15:38:34;3.50;99.90
3912;DHT22;1971;51.778;10.330;2023-03-01T15:41:23;3.20;99.90
3912;DHT22;1971;51.778;10.330;2023-03-01T15:43:54;3.30;99.90
3912;DHT22;1971;51.778;10.330;2023-03-01T15:46:28;3.20;99.90
3912;DHT22;1971;51.778;10.330;2023-03-01T15:49:02;3.40;99.90
3912;DHT22;1971;51.778;10.330;2023-03-01T15:51:34;3.10;99.90
3912;DHT22;1971;51.778;10.330;2023-03-01T15:54:11;3.20;99.90
3912;DHT22;1971;51.778;10.330;2023-03-01T15:56:47;3.20;99.90
3912;DHT22;1971;51.778;10.330;2023-03-01T15:59:17;3.40;99.90
3912;DHT22;1971;51.778;10.330;2023-03-01T16:01:57;3.00;99.90
3912;DHT22;1971;51.778;10.330;2023-03-01T16:04:27;2.60;99.90
3912;DHT22;1971;51.778;10.330;2023-03-01T16:06:57;2.40;99.90
3912;DHT22;1971;51.778;10.330;2023-03-01T16:09:28;2.40;99.90
3912;DHT22;1971;51.778;10.330;2023-03-01T16:12:01;2.30;99.90
3912;DHT22;1971;51.778;10.330;2023-03-01T16:14:33;2.00;99.90
3912;DHT22;1971;51.778;10.330;2023-03-01T16:17:03;1.70;99.90
3912;DHT22;1971;51.778;10.330;2023-03-01T16:19:36;1.60;99.90
3912;DHT22;1971;51.778;10.330;2023-03-01T16:22:08;2.00;99.90
3912;DHT22;1971;51.778;10.330;2023-03-01T16:24:39;1.70;99.90
3912;DHT22;1971;51.778;10.330;2023-03-01T16:27:12;1.70;99.90
3912;DHT22;1971;51.778;10.330;2023-03-01T16:29:43;1.40;99.90
3912;DHT22;1971;51.778;10.330;2023-03-01T16:32:13;1.50;99.90
3912;DHT22;1971;51.778;10.330;2023-03-01T16:34:43;1.60;99.90
3912;DHT22;1971;51.778;10.330;2023-03-01T16:37:16;1.60;99.90
3912;DHT22;1971;51.778;10.330;2023-03-01T16:39:46;1.30;99.90
3912;DHT22;1971;51.778;10.330;2023-03-01T16:42:50;1.50;99.90
3912;DHT22;1971;51.778;10.330;2023-03-01T16:45:20;1.20;99.90
3912;DHT22;1971;51.778;10.330;2023-03-01T16:47:51;1.10;99.90
3912;DHT22;1971;51.778;10.330;2023-03-01T16:50:22;1.10;99.90
3912;DHT22;1971;51.778;10.330;2023-03-01T16:52:52;1.20;99.90
3912;DHT22;1971;51.778;10.330;2023-03-01T16:55:23;1.30;99.90